Time;durP1;ratioP1;P1;durP2;ratioP2;P2;SDS_P1;SDS_P2;PMS_P1;PMS_P2;Temp;Humidity;BMP_temperature;BMP_pressure;BME280_temperature;BME280_humidity;BME280_pressure;Samples;Min_cycle;Max_cycle;Signal;HPM_P1;HPM_P2
2022/06/23 00:02:04;;;;;;;9.13;8.20;;;27.70;59.30;;;;;;5028708;28;20444;-46
2022/06/23 00:04:40;;;;;;;7.10;6.40;;;27.80;59.30;;;;;;5022995;28;20453;-45
2022/06/23 00:07:26;;;;;;;7.93;7.07;;;27.80;59.30;;;;;;5027421;28;20475;-45
2022/06/23 00:09:58;;;;;;;12.27;8.70;;;27.70;59.30;;;;;;5017063;28;20460;-47
2022/06/23 00:12:38;;;;;;;9.17;7.47;;;27.70;59.40;;;;;;5028262;28;20526;-46
2022/06/23 00:15:06;;;;;;;7.17;6.50;;;27.70;59.50;;;;;;5021701;28;20443;-47
2022/06/23 00:17:35;;;;;;;8.73;7.80;;;27.60;59.40;;;;;;5023423;28;20979;-45
2022/06/23 00:20:21;;;;;;;8.40;7.60;;;27.70;59.50;;;;;;5028299;28;20621;-45
2022/06/23 00:22:53;;;;;;;7.17;6.57;;;27.70;59.40;;;;;;5012550;28;20492;-47
2022/06/23 00:25:31;;;;;;;8.53;7.17;;;27.70;59.30;;;;;;5018990;28;20456;-45
2022/06/23 00:27:58;;;;;;;15.10;8.70;;;27.70;59.30;;;;;;5023846;28;20447;-45
2022/06/23 00:30:36;;;;;;;8.03;7.30;;;27.60;59.40;;;;;;5020221;28;20447;-46
2022/06/23 00:33:18;;;;;;;11.03;7.77;;;27.60;59.50;;;;;;5019644;28;20463;-47
2022/06/23 00:35:45;;;;;;;10.33;8.63;;;27.60;59.40;;;;;;5024692;28;20474;-45
2022/06/23 00:38:38;;;;;;;9.87;7.50;;;27.60;59.40;;;;;;5016032;28;20472;-48
2022/06/23 00:41:05;;;;;;;9.60;8.60;;;27.60;59.50;;;;;;5023106;28;20483;-45
2022/06/23 00:43:31;;;;;;;11.33;8.90;;;27.50;59.60;;;;;;5023189;28;20443;-45
2022/06/23 00:46:00;;;;;;;8.87;8.00;;;27.50;59.60;;;;;;5028003;28;20450;-45
2022/06/23 00:48:36;;;;;;;8.90;8.00;;;27.10;62.00;;;;;;5028540;28;20823;-45
2022/06/23 00:51:09;;;;;;;9.97;7.57;;;26.70;63.50;;;;;;5025787;28;20482;-45
2022/06/23 00:53:53;;;;;;;7.40;6.70;;;26.80;62.80;;;;;;5027353;28;20463;-46
2022/06/23 00:56:30;;;;;;;10.90;9.00;;;26.90;62.50;;;;;;5026056;28;20490;-46
2022/06/23 00:59:14;;;;;;;11.73;10.50;;;26.90;62.50;;;;;;5028766;28;20509;-49
2022/06/23 01:01:45;;;;;;;10.10;9.10;;;26.80;62.80;;;;;;5026748;28;20480;-49
2022/06/23 01:04:17;;;;;;;9.87;8.73;;;26.40;64.80;;;;;;5025894;28;20475;-48
2022/06/23 01:06:53;;;;;;;8.80;7.90;;;26.40;64.90;;;;;;5025585;28;20454;-47
2022/06/23 01:09:29;;;;;;;11.13;9.47;;;26.10;66.20;;;;;;5029704;28;20442;-50
2022/06/23 01:12:02;;;;;;;10.27;7.90;;;26.10;65.90;;;;;;5023517;28;20444;-45
2022/06/23 01:14:39;;;;;;;8.70;7.80;;;26.30;65.10;;;;;;5026236;28;20455;-48
2022/06/23 01:17:14;;;;;;;8.30;7.50;;;26.50;64.10;;;;;;5014754;28;20440;-45
2022/06/23 01:19:42;;;;;;;12.83;8.63;;;26.60;63.10;;;;;;5021391;28;20546;-49
2022/06/23 01:22:31;;;;;;;10.30;8.40;;;26.70;62.50;;;;;;5019135;28;20471;-49
2022/06/23 01:25:17;;;;;;;10.33;8.67;;;26.80;62.40;;;;;;5027428;28;20797;-48
2022/06/23 01:28:09;;;;;;;10.30;9.20;;;26.80;62.20;;;;;;5023099;28;20527;-45
2022/06/23 01:30:43;;;;;;;9.63;7.90;;;26.70;62.80;;;;;;5028891;28;20552;-47
2022/06/23 01:33:28;;;;;;;10.13;9.20;;;26.30;64.50;;;;;;5017847;28;21444;-47
2022/06/23 01:36:25;;;;;;;8.60;7.80;;;26.40;64.10;;;;;;5026460;28;20458;-46
2022/06/23 01:38:53;;;;;;;8.60;7.80;;;26.60;63.50;;;;;;5026122;28;20551;-45
2022/06/23 01:41:37;;;;;;;11.70;7.60;;;26.60;62.80;;;;;;5024806;28;20479;-46
2022/06/23 01:44:40;;;;;;;8.33;7.03;;;26.70;62.50;;;;;;5021202;28;20826;-46
2022/06/23 01:47:39;;;;;;;8.50;7.63;;;26.80;61.90;;;;;;5022200;28;20973;-47
2022/06/23 01:50:14;;;;;;;9.10;8.00;;;26.90;61.40;;;;;;5019895;28;20470;-45
2022/06/23 01:52:47;;;;;;;10.73;8.53;;;26.90;61.20;;;;;;5019268;28;20444;-46
2022/06/23 01:55:21;;;;;;;10.40;9.40;;;26.90;61.10;;;;;;5022742;28;20472;-45
2022/06/23 01:58:02;;;;;;;8.37;7.67;;;26.90;61.00;;;;;;5018141;28;20459;-45
2022/06/23 02:00:28;;;;;;;8.17;6.70;;;27.00;60.90;;;;;;5026993;28;20531;-48
2022/06/23 02:03:09;;;;;;;9.73;7.40;;;26.90;60.60;;;;;;5017889;28;20451;-45
2022/06/23 02:05:47;;;;;;;10.93;9.10;;;27.00;60.40;;;;;;5025907;28;20435;-45
2022/06/23 02:08:44;;;;;;;11.83;6.90;;;27.00;60.30;;;;;;5022515;28;20450;-45
2022/06/23 02:11:48;;;;;;;9.33;7.30;;;27.00;60.20;;;;;;4989644;28;20885;-45
2022/06/23 02:14:37;;;;;;;12.33;8.33;;;27.10;60.00;;;;;;5026123;28;20451;-46
2022/06/23 02:17:18;;;;;;;13.00;9.67;;;27.00;59.90;;;;;;5017678;28;20459;-45
2022/06/23 02:19:48;;;;;;;11.93;9.30;;;27.00;59.90;;;;;;5028847;28;22329;-45
2022/06/23 02:22:25;;;;;;;9.43;8.53;;;26.90;60.00;;;;;;5018455;28;20440;-45
2022/06/23 02:25:26;;;;;;;13.20;9.20;;;26.90;59.90;;;;;;5031181;28;20447;-46
2022/06/23 02:27:56;;;;;;;7.53;6.77;;;26.90;59.80;;;;;;5018324;28;20546;-46
2022/06/23 02:30:34;;;;;;;7.60;6.90;;;26.80;60.10;;;;;;5020737;28;21164;-46
2022/06/23 02:33:05;;;;;;;8.97;8.07;;;26.80;60.80;;;;;;5021067;28;20463;-46
2022/06/23 02:35:46;;;;;;;8.40;6.70;;;26.80;60.10;;;;;;5021915;28;20443;-46
2022/06/23 02:38:25;;;;;;;9.50;6.93;;;26.80;60.10;;;;;;5035806;28;20791;-45
2022/06/23 02:41:01;;;;;;;10.70;9.67;;;26.90;60.00;;;;;;5019207;28;20447;-47
2022/06/23 02:43:41;;;;;;;10.93;8.10;;;26.80;59.90;;;;;;5027119;28;20447;-46
2022/06/23 02:46:38;;;;;;;9.03;7.50;;;26.80;60.60;;;;;;5028226;28;20747;-47
2022/06/23 02:49:14;;;;;;;9.13;8.03;;;26.80;60.00;;;;;;5023788;28;20537;-46
2022/06/23 02:51:59;;;;;;;10.70;7.70;;;26.70;60.10;;;;;;5029676;28;20431;-47
2022/06/23 02:54:58;;;;;;;8.80;7.60;;;26.60;60.30;;;;;;5023046;28;20951;-46
2022/06/23 02:57:39;;;;;;;10.10;8.00;;;26.60;60.00;;;;;;5015797;28;20478;-45
2022/06/23 03:00:08;;;;;;;9.23;7.60;;;26.50;60.10;;;;;;5026714;28;20488;-45
2022/06/23 03:02:49;;;;;;;9.47;7.97;;;26.50;60.00;;;;;;5023507;28;20510;-46
2022/06/23 03:05:28;;;;;;;8.90;7.90;;;26.50;60.00;;;;;;5023110;28;20448;-46
2022/06/23 03:08:05;;;;;;;9.63;7.33;;;26.50;60.30;;;;;;5020638;28;20959;-42
2022/06/23 03:10:42;;;;;;;9.70;7.83;;;26.40;60.30;;;;;;5022914;28;20526;-44
2022/06/23 03:13:20;;;;;;;9.33;7.87;;;26.40;60.90;;;;;;5019873;28;20543;-43
2022/06/23 03:15:55;;;;;;;12.77;8.17;;;26.40;61.10;;;;;;5023992;28;20440;-44
2022/06/23 03:18:30;;;;;;;10.40;7.50;;;26.30;60.90;;;;;;5004188;28;20464;-43
2022/06/23 03:21:06;;;;;;;8.33;7.63;;;26.30;60.70;;;;;;5020954;28;20618;-43
2022/06/23 03:23:50;;;;;;;8.53;7.23;;;26.40;60.50;;;;;;5026638;28;20807;-44
2022/06/23 03:26:35;;;;;;;7.27;6.50;;;26.30;60.00;;;;;;5019815;28;20452;-44
2022/06/23 03:29:06;;;;;;;11.13;7.63;;;26.20;60.50;;;;;;5017835;28;20444;-43
2022/06/23 03:31:40;;;;;;;7.33;6.57;;;26.10;60.60;;;;;;5020444;28;20447;-44
2022/06/23 03:34:12;;;;;;;12.57;6.20;;;26.10;60.70;;;;;;5016844;28;20488;-44
2022/06/23 03:36:49;;;;;;;9.40;6.63;;;26.10;60.60;;;;;;5024469;28;20826;-43
2022/06/23 03:42:36;;;;;;;9.47;7.30;;;26.20;60.00;;;;;;5018619;28;20438;-44
2022/06/23 03:45:16;;;;;;;9.30;6.73;;;26.20;60.00;;;;;;5020954;28;20528;-44
2022/06/23 03:48:00;;;;;;;12.53;10.70;;;26.20;60.00;;;;;;5016082;28;20531;-43
2022/06/23 03:50:48;;;;;;;9.17;6.60;;;26.30;60.00;;;;;;5022694;28;20440;-43
2022/06/23 03:53:39;;;;;;;7.30;6.70;;;26.10;60.40;;;;;;5015160;28;20513;-47
2022/06/23 03:56:09;;;;;;;7.53;6.73;;;25.90;60.90;;;;;;5018833;28;20479;-47
2022/06/23 03:58:34;;;;;;;10.87;7.00;;;25.90;61.20;;;;;;5016680;28;20464;-45
2022/06/23 04:01:18;;;;;;;9.77;6.73;;;26.00;61.00;;;;;;5026559;28;20454;-47
2022/06/23 04:03:50;;;;;;;7.77;6.97;;;26.10;60.90;;;;;;5018253;28;20212;-47
2022/06/23 04:06:30;;;;;;;9.83;7.30;;;26.10;60.50;;;;;;5021704;28;20557;-48
2022/06/23 04:09:19;;;;;;;8.50;7.40;;;26.10;60.60;;;;;;5022293;28;20907;-48
2022/06/23 04:12:03;;;;;;;9.10;6.93;;;26.10;60.90;;;;;;5013364;28;20448;-47
2022/06/23 04:14:44;;;;;;;9.33;8.47;;;26.10;61.20;;;;;;5020550;28;20452;-44
2022/06/23 04:17:34;;;;;;;10.23;9.30;;;26.10;61.20;;;;;;5021581;28;20534;-48
2022/06/23 04:20:09;;;;;;;8.30;7.60;;;26.10;61.40;;;;;;5019025;28;20967;-44
2022/06/23 04:22:57;;;;;;;7.87;7.17;;;26.10;61.60;;;;;;5020595;28;20454;-48
2022/06/23 04:25:31;;;;;;;9.63;8.00;;;26.10;61.80;;;;;;5022350;28;20484;-47
2022/06/23 04:28:00;;;;;;;9.37;8.23;;;26.00;61.90;;;;;;5024579;28;20487;-45
2022/06/23 04:30:26;;;;;;;7.70;6.30;;;26.10;61.90;;;;;;5025642;28;20444;-43
2022/06/23 04:32:54;;;;;;;8.37;7.10;;;26.10;61.60;;;;;;5025657;28;20457;-48
2022/06/23 04:35:36;;;;;;;7.33;6.30;;;26.20;61.40;;;;;;5026148;28;20198;-43
2022/06/23 04:38:04;;;;;;;8.53;6.03;;;26.20;61.10;;;;;;5023305;28;20444;-47
2022/06/23 04:40:49;;;;;;;6.90;6.23;;;26.10;61.90;;;;;;5026616;28;20574;-48
2022/06/23 04:43:19;;;;;;;8.50;5.43;;;26.10;61.70;;;;;;5022113;28;20945;-44
2022/06/23 04:45:59;;;;;;;7.10;5.77;;;26.10;61.70;;;;;;5015512;28;20515;-44
2022/06/23 04:48:36;;;;;;;8.50;6.43;;;26.20;61.60;;;;;;5019824;28;20463;-47
2022/06/23 04:51:23;;;;;;;8.33;7.53;;;26.30;61.50;;;;;;5022813;28;20594;-46
2022/06/23 04:53:55;;;;;;;7.87;6.60;;;26.00;62.80;;;;;;5016371;28;20491;-44
2022/06/23 04:56:50;;;;;;;7.10;6.30;;;25.90;63.40;;;;;;5016167;28;20478;-46
2022/06/23 04:59:40;;;;;;;6.13;5.60;;;25.90;63.40;;;;;;5019848;28;20499;-47
2022/06/23 05:02:46;;;;;;;8.23;6.80;;;26.00;62.90;;;;;;5023246;28;20982;-46
2022/06/23 05:05:16;;;;;;;13.27;6.80;;;26.00;62.90;;;;;;5027865;28;20499;-46
2022/06/23 05:07:58;;;;;;;6.17;5.57;;;26.00;62.70;;;;;;5020970;28;20448;-43
2022/06/23 05:10:34;;;;;;;6.70;6.00;;;26.10;62.80;;;;;;5024252;28;20870;-47
2022/06/23 05:13:12;;;;;;;6.60;4.87;;;26.10;62.70;;;;;;5024699;28;20447;-44
2022/06/23 05:15:46;;;;;;;7.10;5.97;;;26.10;62.70;;;;;;5026527;28;20935;-45
2022/06/23 05:18:14;;;;;;;10.07;5.80;;;26.10;62.50;;;;;;5023313;28;20445;-44
2022/06/23 05:20:40;;;;;;;5.97;5.40;;;26.30;62.20;;;;;;5023151;28;20444;-46
2022/06/23 05:23:12;;;;;;;6.97;4.83;;;26.30;61.90;;;;;;5026096;28;20467;-44
2022/06/23 05:25:43;;;;;;;8.10;6.03;;;26.10;61.90;;;;;;5019670;28;20193;-46
2022/06/23 05:28:25;;;;;;;7.93;5.63;;;26.10;62.60;;;;;;5020848;28;20451;-45
2022/06/23 05:30:58;;;;;;;8.27;5.07;;;26.10;62.80;;;;;;5028965;28;20447;-44
2022/06/23 05:33:35;;;;;;;7.60;5.70;;;26.10;62.40;;;;;;5026392;28;20931;-47
2022/06/23 05:36:12;;;;;;;8.87;5.57;;;26.30;62.30;;;;;;5022650;28;20950;-43
2022/06/23 05:39:03;;;;;;;11.83;7.10;;;26.30;62.10;;;;;;5023537;28;20947;-43
2022/06/23 05:41:40;;;;;;;9.00;6.33;;;26.40;61.90;;;;;;5030251;28;20443;-44
2022/06/23 05:44:17;;;;;;;8.47;6.50;;;26.50;61.50;;;;;;5028219;28;20539;-43
2022/06/23 05:46:45;;;;;;;5.83;5.23;;;26.50;61.50;;;;;;5027961;28;20440;-44
2022/06/23 05:49:38;;;;;;;10.37;6.43;;;26.70;61.30;;;;;;5027305;28;20448;-44
2022/06/23 05:52:34;;;;;;;9.33;5.40;;;26.70;61.00;;;;;;5025373;28;20440;-44
2022/06/23 05:55:18;;;;;;;9.03;5.40;;;26.80;60.60;;;;;;5014685;28;20917;-43
2022/06/23 05:57:55;;;;;;;9.67;6.93;;;26.80;60.70;;;;;;5029713;28;20869;-43
2022/06/23 06:00:21;;;;;;;11.70;6.23;;;26.80;61.10;;;;;;5021896;28;20511;-45
2022/06/23 06:02:58;;;;;;;6.03;5.50;;;27.00;60.60;;;;;;5029610;28;20573;-43
2022/06/23 06:05:30;;;;;;;15.93;7.90;;;27.10;60.50;;;;;;5027592;28;20481;-45
2022/06/23 06:07:56;;;;;;;13.27;6.90;;;27.10;61.20;;;;;;5021494;28;20201;-46
2022/06/23 06:10:26;;;;;;;11.33;7.97;;;27.20;61.80;;;;;;5029746;28;20887;-45
2022/06/23 06:12:54;;;;;;;9.73;6.03;;;26.70;63.40;;;;;;5029211;28;20458;-44
2022/06/23 06:15:22;;;;;;;8.40;6.50;;;26.30;66.40;;;;;;5025984;28;20440;-44
2022/06/23 06:17:50;;;;;;;12.00;7.23;;;26.40;66.00;;;;;;5024321;28;20448;-44
2022/06/23 06:20:21;;;;;;;7.97;6.33;;;26.50;66.80;;;;;;5023681;28;20847;-44
2022/06/23 06:22:55;;;;;;;9.00;6.27;;;26.50;66.00;;;;;;5027463;28;20447;-47
2022/06/23 06:25:33;;;;;;;9.00;5.90;;;26.60;65.40;;;;;;5029944;28;20444;-46
2022/06/23 06:28:18;;;;;;;9.67;6.27;;;26.40;66.50;;;;;;5029458;28;21012;-44
2022/06/23 06:31:07;;;;;;;13.10;7.73;;;25.90;67.90;;;;;;5025782;28;20858;-44
2022/06/23 06:34:04;;;;;;;7.80;6.33;;;25.70;68.90;;;;;;5017774;28;20528;-44
2022/06/23 06:36:36;;;;;;;6.87;6.23;;;25.80;70.60;;;;;;5029648;28;20546;-44
2022/06/23 06:39:31;;;;;;;8.23;5.90;;;26.00;69.90;;;;;;5030774;28;20471;-45
2022/06/23 06:42:00;;;;;;;10.73;5.83;;;26.10;68.40;;;;;;5021062;28;20456;-44
2022/06/23 06:44:26;;;;;;;7.90;5.50;;;26.10;68.90;;;;;;5027862;28;20432;-44
2022/06/23 06:46:54;;;;;;;12.93;6.33;;;26.10;68.50;;;;;;5030098;28;21150;-45
2022/06/23 06:49:23;;;;;;;6.80;5.20;;;26.40;65.70;;;;;;5013171;28;20209;-48
2022/06/23 06:51:52;;;;;;;8.70;5.13;;;26.70;65.10;;;;;;5028239;28;20432;-46
2022/06/23 06:54:49;;;;;;;11.33;4.53;;;26.70;66.00;;;;;;5029338;28;20428;-48
2022/06/23 06:57:30;;;;;;;8.70;4.77;;;26.80;64.90;;;;;;5024745;28;20439;-46
2022/06/23 07:00:08;;;;;;;7.17;5.10;;;27.00;64.20;;;;;;5023717;28;20488;-44
2022/06/23 07:02:46;;;;;;;7.80;5.50;;;27.10;63.60;;;;;;5021889;28;20452;-48
2022/06/23 07:05:29;;;;;;;11.27;5.30;;;27.20;63.40;;;;;;5018114;28;20500;-45
2022/06/23 07:08:05;;;;;;;15.10;5.53;;;27.40;62.00;;;;;;5029621;28;20471;-47
2022/06/23 07:11:10;;;;;;;8.23;4.97;;;27.60;61.30;;;;;;5029374;28;20444;-47
2022/06/23 07:13:55;;;;;;;14.43;5.03;;;27.70;60.60;;;;;;5011087;28;20452;-46
2022/06/23 07:16:33;;;;;;;5.57;4.30;;;27.80;60.10;;;;;;5026266;28;20444;-47
2022/06/23 07:19:18;;;;;;;9.70;4.60;;;27.90;59.70;;;;;;5030423;28;20490;-48
2022/06/23 07:21:55;;;;;;;10.07;5.33;;;28.00;60.70;;;;;;5026581;28;20452;-48
2022/06/23 07:24:29;;;;;;;8.40;5.30;;;28.00;59.70;;;;;;5029384;28;20443;-49
2022/06/23 07:27:16;;;;;;;9.70;5.20;;;28.10;59.90;;;;;;5027567;28;20444;-46
2022/06/23 07:30:03;;;;;;;7.10;5.70;;;28.20;59.40;;;;;;5028865;28;20485;-47
2022/06/23 07:32:51;;;;;;;12.30;4.50;;;28.20;59.60;;;;;;5026400;28;20451;-49
2022/06/23 07:35:32;;;;;;;7.83;4.97;;;28.40;59.40;;;;;;5025664;28;20479;-46
2022/06/23 07:38:12;;;;;;;7.10;4.70;;;28.60;58.00;;;;;;5023584;28;20444;-48
2022/06/23 07:41:01;;;;;;;8.60;6.20;;;28.70;57.60;;;;;;5015705;28;20599;-45
2022/06/23 07:43:34;;;;;;;8.60;5.37;;;28.70;57.00;;;;;;5020853;28;20447;-47
2022/06/23 07:46:01;;;;;;;10.53;5.00;;;28.70;57.60;;;;;;5025573;28;20447;-48
2022/06/23 07:48:31;;;;;;;7.23;4.70;;;28.80;57.10;;;;;;5027666;28;20440;-47
2022/06/23 07:50:58;;;;;;;11.27;4.47;;;28.80;57.30;;;;;;5007169;28;20465;-44
2022/06/23 07:53:34;;;;;;;7.00;4.50;;;28.80;56.40;;;;;;5019785;28;20444;-43
2022/06/23 07:56:00;;;;;;;8.10;4.77;;;29.00;56.30;;;;;;5019040;28;20558;-45
2022/06/23 07:58:29;;;;;;;7.73;4.43;;;29.10;56.50;;;;;;5004774;28;20454;-45
2022/06/23 08:01:12;;;;;;;10.83;3.67;;;29.20;56.20;;;;;;5025844;28;20443;-45
2022/06/23 08:04:08;;;;;;;8.43;5.57;;;29.30;56.20;;;;;;5018096;28;20814;-48
2022/06/23 08:06:35;;;;;;;11.83;4.80;;;29.50;55.60;;;;;;5032848;28;20927;-46
2022/06/23 08:09:05;;;;;;;10.93;4.33;;;29.50;54.70;;;;;;5021653;28;20462;-43
2022/06/23 08:17:53;;;;;;;8.77;4.63;;;29.70;54.50;;;;;;5017754;28;20463;-43
2022/06/23 08:20:23;;;;;;;7.83;3.97;;;29.80;53.90;;;;;;5029806;28;20986;-44
2022/06/23 08:22:52;;;;;;;6.60;4.20;;;29.90;53.80;;;;;;5031829;28;20439;-44
2022/06/23 08:25:18;;;;;;;6.67;3.70;;;30.10;53.80;;;;;;5027152;28;20447;-44
2022/06/23 08:27:46;;;;;;;6.77;4.17;;;30.30;52.80;;;;;;5026360;28;21575;-43
2022/06/23 08:30:16;;;;;;;8.37;4.70;;;30.50;52.70;;;;;;5031804;28;20208;-43
2022/06/23 08:32:46;;;;;;;8.37;4.20;;;30.60;51.60;;;;;;5030022;28;20435;-44
2022/06/23 08:35:21;;;;;;;9.93;4.30;;;30.60;51.20;;;;;;5024589;28;20443;-44
2022/06/23 08:37:58;;;;;;;7.13;4.20;;;30.10;51.40;;;;;;5028127;28;20534;-44
2022/06/23 08:40:44;;;;;;;8.60;4.03;;;30.40;52.00;;;;;;5025075;28;20483;-45
2022/06/23 08:43:14;;;;;;;7.73;3.93;;;30.60;51.40;;;;;;5013692;28;20448;-45
2022/06/23 08:46:06;;;;;;;10.77;4.23;;;30.90;50.70;;;;;;5025303;28;20451;-47
2022/06/23 08:48:37;;;;;;;6.93;4.10;;;30.80;50.10;;;;;;4999939;28;20452;-45
2022/06/23 08:51:22;;;;;;;8.43;3.57;;;31.00;49.40;;;;;;5028205;28;20439;-45
2022/06/23 08:54:04;;;;;;;9.43;3.97;;;31.20;47.50;;;;;;5029542;28;20451;-47
2022/06/23 08:56:38;;;;;;;8.47;3.33;;;31.40;49.10;;;;;;5029729;28;20482;-45
2022/06/23 08:59:22;;;;;;;5.43;3.80;;;31.50;46.80;;;;;;5027800;28;20549;-44
2022/06/23 09:02:07;;;;;;;8.43;4.40;;;31.70;47.40;;;;;;5027983;28;20444;-48
2022/06/23 09:04:38;;;;;;;10.97;3.80;;;31.90;47.60;;;;;;5027182;28;20436;-45
2022/06/23 09:07:11;;;;;;;8.40;4.77;;;32.10;48.10;;;;;;5026921;28;20453;-47
2022/06/23 09:09:43;;;;;;;5.97;4.10;;;32.20;47.10;;;;;;5022613;28;20441;-44
2022/06/23 09:12:27;;;;;;;6.40;4.20;;;32.30;47.10;;;;;;5025924;28;20521;-47
2022/06/23 09:15:08;;;;;;;8.20;4.10;;;32.40;46.90;;;;;;5028076;28;20436;-46
2022/06/23 09:17:49;;;;;;;8.20;4.07;;;32.60;46.70;;;;;;5025519;28;20498;-46
2022/06/23 09:20:29;;;;;;;5.97;3.77;;;32.70;47.10;;;;;;5028700;28;20614;-46
2022/06/23 09:23:24;;;;;;;7.90;4.33;;;32.90;45.80;;;;;;5028008;28;20448;-46
2022/06/23 09:26:03;;;;;;;6.50;3.77;;;33.10;45.50;;;;;;5019665;28;20789;-44
2022/06/23 09:28:52;;;;;;;6.60;4.40;;;33.10;45.60;;;;;;5026836;28;20467;-46
2022/06/23 09:31:18;;;;;;;8.50;4.67;;;33.00;44.80;;;;;;5026324;28;20448;-45
2022/06/23 09:33:46;;;;;;;6.63;3.60;;;33.20;44.40;;;;;;5025414;28;20463;-46
2022/06/23 09:36:12;;;;;;;5.10;3.80;;;33.20;43.60;;;;;;5026510;28;20189;-45
2022/06/23 09:38:47;;;;;;;9.40;4.20;;;33.50;43.80;;;;;;5030141;28;21136;-47
2022/06/23 09:41:50;;;;;;;7.80;4.03;;;33.70;43.20;;;;;;5023064;28;20205;-45
2022/06/23 09:44:49;;;;;;;6.70;4.30;;;33.90;43.00;;;;;;5014679;28;20560;-45
2022/06/23 09:47:42;;;;;;;8.47;4.40;;;34.10;43.20;;;;;;5025203;28;20463;-49
2022/06/23 09:50:26;;;;;;;8.00;4.20;;;34.00;42.60;;;;;;5019920;28;20487;-44
2022/06/23 09:52:55;;;;;;;6.40;3.70;;;33.90;42.50;;;;;;5023206;28;20452;-45
2022/06/23 09:55:47;;;;;;;10.03;4.60;;;34.20;42.30;;;;;;5025096;28;20499;-44
2022/06/23 09:58:25;;;;;;;8.90;4.20;;;34.40;40.80;;;;;;5021597;28;21408;-46
2022/06/23 10:01:05;;;;;;;8.43;4.83;;;34.50;40.50;;;;;;5029707;28;20456;-47
2022/06/23 10:03:42;;;;;;;7.63;4.50;;;34.50;40.30;;;;;;5004816;28;20439;-47
2022/06/23 10:06:23;;;;;;;11.40;4.67;;;34.70;41.50;;;;;;5030697;28;20611;-45
2022/06/23 10:09:09;;;;;;;9.77;4.93;;;34.70;41.40;;;;;;5019954;28;20450;-48
2022/06/23 10:11:45;;;;;;;5.57;3.80;;;34.80;40.70;;;;;;5029692;28;20502;-45
2022/06/23 10:14:14;;;;;;;8.93;3.57;;;35.00;40.20;;;;;;5026343;28;20542;-47
2022/06/23 10:16:57;;;;;;;6.67;4.50;;;35.00;40.50;;;;;;5026887;28;20451;-47
2022/06/23 10:19:39;;;;;;;9.57;4.37;;;34.90;39.30;;;;;;5028141;28;20539;-47
2022/06/23 10:22:39;;;;;;;11.30;4.43;;;35.10;38.90;;;;;;5026208;28;20479;-49
2022/06/23 10:25:35;;;;;;;7.47;4.47;;;35.30;38.30;;;;;;5017140;28;20464;-45
2022/06/23 10:28:16;;;;;;;8.97;4.40;;;35.00;38.80;;;;;;4994561;28;20815;-46
2022/06/23 10:31:02;;;;;;;7.07;4.40;;;34.80;40.40;;;;;;5025365;28;20452;-47
2022/06/23 10:33:54;;;;;;;7.50;5.07;;;35.10;39.50;;;;;;5020210;28;21150;-47
2022/06/23 10:36:47;;;;;;;10.90;5.50;;;35.40;39.10;;;;;;5019498;28;20449;-45
2022/06/23 10:39:31;;;;;;;9.77;5.90;;;35.70;39.50;;;;;;5023187;28;20493;-46
2022/06/23 10:42:15;;;;;;;8.80;5.07;;;35.60;38.90;;;;;;5028519;28;20455;-46
2022/06/23 10:44:46;;;;;;;8.50;5.23;;;35.70;38.90;;;;;;5029333;28;20455;-46
2022/06/23 10:47:38;;;;;;;12.10;5.90;;;35.80;38.10;;;;;;5028652;28;20931;-44
2022/06/23 10:50:07;;;;;;;8.83;5.03;;;35.70;37.80;;;;;;5027639;28;20799;-45
2022/06/23 10:53:00;;;;;;;8.10;6.00;;;35.90;38.10;;;;;;5018460;28;21002;-45
2022/06/23 10:55:52;;;;;;;9.13;5.33;;;36.10;38.10;;;;;;5024737;28;20537;-45
2022/06/23 10:58:23;;;;;;;8.10;5.80;;;36.20;38.20;;;;;;5021853;28;20439;-49
2022/06/23 11:01:04;;;;;;;9.50;4.87;;;36.50;37.10;;;;;;5028428;28;20501;-45
2022/06/23 11:03:56;;;;;;;9.53;5.30;;;36.70;36.20;;;;;;5023068;28;20443;-49
2022/06/23 11:06:42;;;;;;;8.70;5.47;;;37.00;36.40;;;;;;5028879;28;20711;-49
2022/06/23 11:09:35;;;;;;;9.70;5.23;;;37.10;36.40;;;;;;5029734;28;20439;-49
2022/06/23 11:12:25;;;;;;;10.23;5.83;;;37.00;36.20;;;;;;5015909;28;21073;-45
2022/06/23 11:15:19;;;;;;;10.50;5.40;;;37.00;36.60;;;;;;5027705;28;20450;-45
2022/06/23 11:18:07;;;;;;;7.23;5.40;;;37.10;37.50;;;;;;5026846;28;21023;-50
2022/06/23 11:21:10;;;;;;;10.07;5.13;;;37.10;36.00;;;;;;5026771;28;20487;-46
2022/06/23 11:24:04;;;;;;;11.90;5.10;;;36.90;35.40;;;;;;5017543;28;20543;-49
2022/06/23 11:27:01;;;;;;;11.70;5.17;;;37.10;35.60;;;;;;5028174;28;20439;-45
2022/06/23 11:29:35;;;;;;;8.63;5.33;;;37.30;34.90;;;;;;5027986;28;20494;-48
2022/06/23 11:32:27;;;;;;;8.83;5.13;;;37.50;35.10;;;;;;5026970;28;20447;-44
2022/06/23 11:35:15;;;;;;;8.17;4.97;;;37.60;34.90;;;;;;5025877;28;20463;-45
2022/06/23 11:38:04;;;;;;;12.83;5.00;;;37.70;35.40;;;;;;5026327;28;20443;-47
2022/06/23 11:40:32;;;;;;;6.53;4.70;;;37.90;34.00;;;;;;5001408;28;20841;-47
2022/06/23 11:43:09;;;;;;;7.40;5.33;;;37.80;34.30;;;;;;5021761;28;20451;-48
2022/06/23 11:46:00;;;;;;;11.90;6.40;;;37.80;34.30;;;;;;5027942;28;20460;-45
2022/06/23 11:48:50;;;;;;;9.73;5.17;;;37.80;33.70;;;;;;5026686;28;20467;-46
2022/06/23 11:51:37;;;;;;;11.10;6.10;;;37.90;33.10;;;;;;5021688;28;20553;-46
2022/06/23 11:54:16;;;;;;;10.03;5.93;;;37.80;33.60;;;;;;5027053;28;20447;-44
2022/06/23 11:56:54;;;;;;;10.37;5.40;;;38.00;33.10;;;;;;5016528;28;20459;-45
2022/06/23 11:59:47;;;;;;;8.17;5.53;;;38.10;34.30;;;;;;5019343;28;20478;-46
2022/06/23 12:02:13;;;;;;;8.40;5.67;;;38.30;33.50;;;;;;5018059;28;20435;-48
2022/06/23 12:04:47;;;;;;;9.30;5.00;;;38.40;32.60;;;;;;5027766;28;20502;-48
2022/06/23 12:07:25;;;;;;;9.10;5.57;;;38.40;31.30;;;;;;5015184;28;20657;-48
2022/06/23 12:10:03;;;;;;;10.87;5.60;;;38.60;31.60;;;;;;5020921;28;20451;-45
2022/06/23 12:12:33;;;;;;;9.90;4.83;;;38.30;30.50;;;;;;5027739;28;20431;-45
2022/06/23 12:15:01;;;;;;;9.80;4.47;;;38.10;30.00;;;;;;5025171;28;20448;-47
2022/06/23 12:17:32;;;;;;;11.40;3.63;;;38.10;30.40;;;;;;5025214;28;20439;-46
2022/06/23 12:20:10;;;;;;;9.33;3.33;;;38.30;29.20;;;;;;5023624;28;20491;-48
2022/06/23 12:22:43;;;;;;;8.37;3.90;;;38.50;29.10;;;;;;5018263;28;20440;-46
2022/06/23 12:25:14;;;;;;;8.50;4.50;;;38.50;29.30;;;;;;5023799;28;20577;-46
2022/06/23 12:27:49;;;;;;;9.63;4.30;;;38.70;29.20;;;;;;5028080;28;20946;-45
2022/06/23 12:30:17;;;;;;;9.40;4.27;;;38.70;29.70;;;;;;5027816;28;20940;-44
2022/06/23 12:32:53;;;;;;;10.50;5.30;;;38.60;29.60;;;;;;5024502;28;21207;-44
2022/06/23 12:35:57;;;;;;;11.80;5.83;;;38.80;29.70;;;;;;5016167;28;20962;-46
2022/06/23 12:38:31;;;;;;;9.87;5.30;;;39.00;29.90;;;;;;5023948;28;20455;-44
2022/06/23 12:41:42;;;;;;;11.13;4.93;;;39.00;29.70;;;;;;5017449;28;20486;-48
2022/06/23 12:44:29;;;;;;;6.77;4.50;;;39.00;29.50;;;;;;5028895;28;20822;-45
2022/06/23 12:47:12;;;;;;;9.93;3.73;;;39.10;29.40;;;;;;5024150;28;20486;-45
2022/06/23 12:50:09;;;;;;;8.03;3.40;;;39.10;28.90;;;;;;5029951;28;20450;-44
2022/06/23 12:52:48;;;;;;;7.53;3.30;;;39.10;29.00;;;;;;5024767;28;20446;-45
2022/06/23 12:55:22;;;;;;;7.73;3.73;;;39.10;28.60;;;;;;5027056;28;20479;-45
2022/06/23 12:58:28;;;;;;;6.67;3.70;;;39.20;28.40;;;;;;5024283;28;20450;-48
2022/06/23 13:00:59;;;;;;;7.93;4.13;;;39.20;29.00;;;;;;5031155;28;20525;-49
2022/06/23 13:03:25;;;;;;;6.80;4.20;;;38.70;28.70;;;;;;5024954;28;20450;-49
2022/06/23 13:06:09;;;;;;;8.37;5.23;;;38.60;29.50;;;;;;5028566;28;20451;-44
2022/06/23 13:09:02;;;;;;;9.33;4.03;;;38.90;29.40;;;;;;5019177;28;20200;-45
2022/06/23 13:11:39;;;;;;;9.80;4.00;;;39.10;29.00;;;;;;5026851;28;20455;-47
2022/06/23 13:14:21;;;;;;;6.20;3.97;;;39.30;28.60;;;;;;5027372;28;20506;-45
2022/06/23 13:16:57;;;;;;;12.30;4.50;;;39.30;28.80;;;;;;5017410;28;20475;-48
2022/06/23 13:19:32;;;;;;;10.27;5.10;;;39.40;29.50;;;;;;5021564;28;20475;-50
2022/06/23 13:22:09;;;;;;;8.23;3.60;;;39.50;29.20;;;;;;5022513;28;20541;-47
2022/06/23 13:24:40;;;;;;;8.90;4.30;;;39.80;28.90;;;;;;5017032;28;20810;-47
2022/06/23 13:27:19;;;;;;;8.40;4.43;;;40.00;28.70;;;;;;5021011;28;20449;-46
2022/06/23 13:30:03;;;;;;;10.83;4.23;;;39.90;28.20;;;;;;5017065;28;20989;-46
2022/06/23 13:32:47;;;;;;;7.53;5.27;;;39.60;28.30;;;;;;5016971;28;20443;-46
2022/06/23 13:35:30;;;;;;;8.10;4.70;;;39.50;28.90;;;;;;5018996;28;20444;-48
2022/06/23 13:38:19;;;;;;;8.63;5.30;;;39.00;29.20;;;;;;5015976;28;20444;-49
2022/06/23 13:41:01;;;;;;;6.93;4.67;;;38.70;29.90;;;;;;5022758;28;20585;-49
2022/06/23 13:43:45;;;;;;;12.57;4.43;;;38.60;29.40;;;;;;5020651;28;20435;-46
2022/06/23 13:46:22;;;;;;;5.80;4.73;;;38.80;29.50;;;;;;5023591;28;20454;-46
2022/06/23 13:48:53;;;;;;;7.17;4.40;;;38.90;29.20;;;;;;5018786;28;20993;-47
2022/06/23 13:51:30;;;;;;;10.73;4.77;;;39.10;29.20;;;;;;5022911;28;20538;-45
2022/06/23 13:54:01;;;;;;;6.80;4.00;;;39.00;28.80;;;;;;5026710;28;20470;-47
2022/06/23 13:56:43;;;;;;;7.23;4.27;;;38.70;28.70;;;;;;5020967;28;20486;-49